createdAt,value
2018-07-13T00:01:14.579Z,17.67
2018-07-13T00:03:44.829Z,17.17
2018-07-13T00:06:14.240Z,16.57
2018-07-13T00:08:44.244Z,16.60
2018-07-13T00:11:14.104Z,18.17
2018-07-13T00:14:09.507Z,18.50
2018-07-13T00:16:39.970Z,16.93
2018-07-13T00:19:09.955Z,17.67
2018-07-13T00:21:40.255Z,17.37
2018-07-13T00:24:11.473Z,17.57
2018-07-13T00:26:42.804Z,16.70
2018-07-13T00:29:13.355Z,18.07
2018-07-13T00:31:44.495Z,17.93
2018-07-13T00:34:14.316Z,19.97
2018-07-13T00:36:44.214Z,19.37
2018-07-13T00:39:14.311Z,18.30
2018-07-13T00:41:43.658Z,20.20
2018-07-13T00:44:12.968Z,20.13
2018-07-13T00:46:42.306Z,20.57
2018-07-13T00:49:12.064Z,19.77
2018-07-13T00:51:42.035Z,19.37
2018-07-13T00:54:11.326Z,19.80
2018-07-13T00:56:41.100Z,18.90
2018-07-13T00:59:11.385Z,18.57
2018-07-13T01:01:40.830Z,19.27
2018-07-13T01:04:11.615Z,16.73
2018-07-13T01:06:40.985Z,16.63
2018-07-13T01:09:10.280Z,17.47
2018-07-13T01:11:40.302Z,17.47
2018-07-13T01:14:09.614Z,15.83
2018-07-13T01:16:39.551Z,16.20
2018-07-13T01:19:10.024Z,15.97
2018-07-13T01:21:39.800Z,16.90
2018-07-13T01:24:09.696Z,15.93
2018-07-13T01:26:40.260Z,16.10
2018-07-13T01:29:09.568Z,16.37
2018-07-13T01:31:39.197Z,15.73
2018-07-13T01:34:08.777Z,16.57
2018-07-13T01:36:40.356Z,16.47
2018-07-13T01:39:12.344Z,15.67
2018-07-13T01:41:42.236Z,15.77
2018-07-13T01:44:11.544Z,16.00
2018-07-13T01:46:40.903Z,14.73
2018-07-13T01:49:10.336Z,15.03
2018-07-13T01:51:40.028Z,14.87
2018-07-13T01:54:10.307Z,13.63
2018-07-13T01:56:42.563Z,15.03
2018-07-13T01:59:12.083Z,14.73
2018-07-13T02:01:42.972Z,14.30
2018-07-13T02:04:13.252Z,13.80
2018-07-13T02:06:43.251Z,15.37
2018-07-13T02:09:12.992Z,14.20
2018-07-13T02:11:43.174Z,16.30
2018-07-13T02:14:12.487Z,15.43
2018-07-13T02:16:42.165Z,14.73
2018-07-13T02:19:12.985Z,14.87
2018-07-13T02:21:42.677Z,14.73
2018-07-13T02:24:11.987Z,14.70
2018-07-13T02:26:41.447Z,14.83
2018-07-13T02:29:11.702Z,13.83
2018-07-13T02:31:41.040Z,14.03
2018-07-13T02:34:10.380Z,14.47
2018-07-13T02:36:40.166Z,14.43
2018-07-13T02:39:12.154Z,15.20
2018-07-13T02:41:41.535Z,14.40
2018-07-13T02:44:12.261Z,13.50
2018-07-13T02:46:41.626Z,14.40
2018-07-13T02:49:11.835Z,15.20
2018-07-13T02:51:43.133Z,12.57
2018-07-13T02:54:13.412Z,13.83
2018-07-13T02:56:43.091Z,13.80
2018-07-13T02:59:13.133Z,13.43
2018-07-13T03:01:42.926Z,12.83
2018-07-13T03:04:13.149Z,12.40
2018-07-13T03:06:43.030Z,11.97
2018-07-13T03:09:15.573Z,11.77
2018-07-13T03:11:45.120Z,12.30
2018-07-13T03:14:15.024Z,11.43
2018-07-13T03:16:44.841Z,11.67
2018-07-13T03:19:14.388Z,11.70
2018-07-13T03:21:44.436Z,11.70
2018-07-13T03:24:14.560Z,12.63
2018-07-13T03:26:43.886Z,12.63
2018-07-13T03:29:15.083Z,12.67
2018-07-13T03:31:45.943Z,13.53
2018-07-13T03:34:16.313Z,13.53
2018-07-13T03:36:45.847Z,13.60
2018-07-13T03:39:15.640Z,13.50
2018-07-13T03:41:44.964Z,12.97
2018-07-13T03:44:14.915Z,11.83
2018-07-13T03:46:44.465Z,10.83
2018-07-13T03:49:14.020Z,11.40
2018-07-13T03:51:43.326Z,11.03
2018-07-13T03:54:12.735Z,11.10
2018-07-13T03:56:42.975Z,10.77
2018-07-13T03:59:14.349Z,10.83
2018-07-13T04:01:44.484Z,10.40
2018-07-13T04:04:14.916Z,10.03
2018-07-13T04:06:46.095Z,8.90
2018-07-13T04:09:15.407Z,9.87
2018-07-13T04:11:44.903Z,10.07
2018-07-13T04:14:14.253Z,8.57
2018-07-13T04:16:45.624Z,8.43
2018-07-13T04:19:15.604Z,7.77
2018-07-13T04:21:45.876Z,8.20
2018-07-13T04:24:15.272Z,8.17
2018-07-13T04:26:47.493Z,7.70
2018-07-13T04:29:17.423Z,8.80
2018-07-13T04:31:47.778Z,8.60
2018-07-13T04:34:17.543Z,8.83
2018-07-13T04:36:47.084Z,8.47
2018-07-13T04:39:17.650Z,8.90
2018-07-13T04:41:46.988Z,10.20
2018-07-13T04:44:17.279Z,10.07
2018-07-13T04:46:47.767Z,10.63
2018-07-13T04:49:18.007Z,10.37
2018-07-13T04:51:49.108Z,10.80
2018-07-13T04:54:19.831Z,9.80
2018-07-13T04:56:50.084Z,10.07
2018-07-13T04:59:19.997Z,10.53
2018-07-13T05:01:50.542Z,9.50
2018-07-13T05:04:20.852Z,10.60
2018-07-13T05:06:51.998Z,10.70
2018-07-13T05:09:22.195Z,10.87
2018-07-13T05:11:52.383Z,9.87
2018-07-13T05:14:22.032Z,9.57
2018-07-13T05:16:51.975Z,10.03
2018-07-13T05:19:22.109Z,9.33
2018-07-13T05:21:53.267Z,10.87
2018-07-13T05:24:23.534Z,10.67
2018-07-13T05:26:54.626Z,10.73
2018-07-13T05:29:24.897Z,11.97
2018-07-13T05:31:54.644Z,12.50
2018-07-13T05:34:24.377Z,12.50
2018-07-13T05:36:54.476Z,12.87
2018-07-13T05:39:24.552Z,12.13
2018-07-13T05:41:54.103Z,12.00
2018-07-13T05:44:23.537Z,11.47
2018-07-13T05:46:53.775Z,11.30
2018-07-13T05:49:23.200Z,12.17
2018-07-13T05:51:53.666Z,12.33
2018-07-13T05:54:23.099Z,11.80
2018-07-13T05:56:52.520Z,11.40
2018-07-13T05:59:22.930Z,11.73
2018-07-13T06:01:53.021Z,11.20
2018-07-13T06:04:23.339Z,11.53
2018-07-13T06:06:53.563Z,11.87
2018-07-13T06:09:23.543Z,11.83
2018-07-13T06:11:54.237Z,11.10
2018-07-13T06:14:24.185Z,12.37
2018-07-13T06:16:54.373Z,12.20
2018-07-13T06:19:23.780Z,12.00
2018-07-13T06:21:53.564Z,11.30
2018-07-13T06:24:24.348Z,11.77
2018-07-13T06:26:53.676Z,11.33
2018-07-13T06:29:23.403Z,12.67
2018-07-13T06:31:53.662Z,13.33
2018-07-13T06:34:23.283Z,11.77
2018-07-13T06:36:53.055Z,11.93
2018-07-13T06:39:23.301Z,11.47
2018-07-13T06:41:53.966Z,9.80
2018-07-13T06:44:23.975Z,10.23
2018-07-13T06:46:53.671Z,9.73
2018-07-13T06:49:23.868Z,9.73
2018-07-13T06:51:53.544Z,8.63
2018-07-13T06:54:22.953Z,9.47
2018-07-13T06:56:53.291Z,9.73
2018-07-13T06:59:22.787Z,9.90
2018-07-13T07:01:52.476Z,10.53
2018-07-13T07:04:26.565Z,9.67
2018-07-13T07:06:57.113Z,9.93
2018-07-13T07:09:31.051Z,10.13
2018-07-13T07:12:12.592Z,10.13
2018-07-13T07:14:42.344Z,9.97
2018-07-13T07:17:12.575Z,9.27
2018-07-13T07:19:41.946Z,8.40
2018-07-13T07:22:12.645Z,7.37
2018-07-13T07:24:41.980Z,8.07
2018-07-13T07:27:11.796Z,7.60
2018-07-13T07:29:41.588Z,7.83
2018-07-13T07:32:11.389Z,7.17
2018-07-13T07:34:42.101Z,7.60
2018-07-13T07:37:11.440Z,7.73
2018-07-13T07:39:41.292Z,7.80
2018-07-13T07:42:10.667Z,7.73
2018-07-13T07:44:40.622Z,6.50
2018-07-13T07:47:10.784Z,6.93
2018-07-13T07:49:40.535Z,6.87
2018-07-13T07:52:10.747Z,7.60
2018-07-13T07:54:40.561Z,7.20
2018-07-13T07:57:10.040Z,7.37
2018-07-13T07:59:39.789Z,7.60
2018-07-13T08:02:09.131Z,7.60
2018-07-13T08:04:38.940Z,7.60
2018-07-13T08:07:08.961Z,8.40
2018-07-13T08:09:38.016Z,7.93
2018-07-13T08:12:07.848Z,8.80
2018-07-13T08:14:37.267Z,8.07
2018-07-13T08:17:06.572Z,8.90
2018-07-13T08:19:36.286Z,8.03
2018-07-13T08:22:13.211Z,7.30
2018-07-13T08:24:43.671Z,8.13
2018-07-13T08:27:18.684Z,8.10
2018-07-13T08:29:49.428Z,7.33
2018-07-13T08:32:18.777Z,7.97
2018-07-13T08:34:48.801Z,7.47
2018-07-13T08:37:20.500Z,7.83
2018-07-13T08:39:50.452Z,6.73
2018-07-13T08:42:20.026Z,6.20
2018-07-13T08:44:49.815Z,6.97
2018-07-13T08:47:20.625Z,6.17
2018-07-13T08:49:49.987Z,5.90
2018-07-13T08:52:19.369Z,6.00
2018-07-13T08:54:49.157Z,5.73
2018-07-13T08:57:18.661Z,5.40
2018-07-13T08:59:48.517Z,5.30
2018-07-13T09:02:18.192Z,5.37
2018-07-13T09:04:48.387Z,5.63
2018-07-13T09:07:18.123Z,5.13
2018-07-13T09:09:47.515Z,4.93
2018-07-13T09:12:17.451Z,5.23
2018-07-13T09:14:46.865Z,4.57
2018-07-13T09:17:17.208Z,4.87
2018-07-13T09:19:47.169Z,5.13
2018-07-13T09:22:17.651Z,5.00
2018-07-13T09:24:47.427Z,4.60
2018-07-13T09:27:17.499Z,5.33
2018-07-13T09:29:47.232Z,5.17
2018-07-13T09:32:16.872Z,4.57
2018-07-13T09:34:48.344Z,4.40
2018-07-13T09:37:18.432Z,4.37
2018-07-13T09:39:48.743Z,4.67
2018-07-13T09:42:18.852Z,4.03
2018-07-13T09:44:49.041Z,4.20
2018-07-13T09:47:18.741Z,4.40
2018-07-13T09:49:48.101Z,4.13
2018-07-13T09:52:17.518Z,4.60
2018-07-13T09:54:47.323Z,4.30
2018-07-13T09:57:16.976Z,3.70
2018-07-13T09:59:47.968Z,3.60
2018-07-13T10:02:17.791Z,4.50
2018-07-13T10:04:47.227Z,3.90
2018-07-13T10:07:16.627Z,3.87
2018-07-13T10:09:46.343Z,3.90
2018-07-13T10:12:15.731Z,4.03
2018-07-13T10:14:45.124Z,3.90
2018-07-13T10:17:14.569Z,4.37
2018-07-13T10:19:44.112Z,3.97
2018-07-13T10:22:16.802Z,4.33
2018-07-13T10:24:47.057Z,4.30
2018-07-13T10:27:17.804Z,4.17
2018-07-13T10:29:49.727Z,3.57
2018-07-13T10:32:19.916Z,3.73
2018-07-13T10:34:50.417Z,3.57
2018-07-13T10:37:22.282Z,3.70
2018-07-13T10:39:52.504Z,3.60
2018-07-13T10:42:21.850Z,3.70
2018-07-13T10:44:51.156Z,3.60
2018-07-13T10:47:21.047Z,3.90
2018-07-13T10:49:50.356Z,5.47
2018-07-13T10:52:19.934Z,3.57
2018-07-13T10:54:49.840Z,3.70
2018-07-13T10:57:19.160Z,3.43
2018-07-13T10:59:48.474Z,3.87
2018-07-13T11:02:17.798Z,3.37
2018-07-13T11:04:47.541Z,3.50
2018-07-13T11:07:17.148Z,3.73
2018-07-13T11:09:47.453Z,3.80
2018-07-13T11:12:16.862Z,3.63
2018-07-13T11:14:46.823Z,3.53
2018-07-13T11:17:16.175Z,4.03
2018-07-13T11:19:45.841Z,3.90
2018-07-13T11:22:15.155Z,3.67
2018-07-13T11:24:44.446Z,3.63
2018-07-13T11:27:13.876Z,3.60
2018-07-13T11:29:44.503Z,3.30
2018-07-13T11:32:14.117Z,3.90
2018-07-13T11:34:43.413Z,3.50
2018-07-13T11:37:13.430Z,3.77
2018-07-13T11:39:43.482Z,3.50
2018-07-13T11:42:13.150Z,3.77
2018-07-13T11:44:43.393Z,5.03
2018-07-13T11:47:12.734Z,3.33
2018-07-13T11:49:42.539Z,3.37
2018-07-13T11:52:12.143Z,3.03
2018-07-13T11:54:41.748Z,2.60
2018-07-13T11:57:11.711Z,2.67
2018-07-13T11:59:41.475Z,2.53
2018-07-13T12:02:11.872Z,2.67
2018-07-13T12:04:41.208Z,2.63
2018-07-13T12:07:11.031Z,2.40
2018-07-13T12:09:40.348Z,2.80
2018-07-13T12:12:10.414Z,2.40
2018-07-13T12:14:40.153Z,2.90
2018-07-13T12:17:09.500Z,3.20
2018-07-13T12:19:39.473Z,3.50
2018-07-13T12:22:09.409Z,3.83
2018-07-13T12:24:39.083Z,3.90
2018-07-13T12:27:08.421Z,4.30
2018-07-13T12:29:37.712Z,4.67
2018-07-13T12:32:07.068Z,4.93
2018-07-13T12:34:36.416Z,4.80
2018-07-13T12:37:06.210Z,4.73
2018-07-13T12:39:35.657Z,4.60
2018-07-13T12:42:04.972Z,4.30
2018-07-13T12:44:35.394Z,4.03
2018-07-13T12:47:04.732Z,4.00
2018-07-13T12:49:34.758Z,4.13
2018-07-13T12:52:04.150Z,4.40
2018-07-13T12:54:34.118Z,3.90
2018-07-13T12:57:03.622Z,3.43
2018-07-13T12:59:33.424Z,3.70
2018-07-13T13:02:02.979Z,3.60
2018-07-13T13:04:32.828Z,3.00
2018-07-13T13:07:02.401Z,3.17
2018-07-13T13:09:31.989Z,3.00
2018-07-13T13:12:01.733Z,2.93
2018-07-13T13:14:33.222Z,2.70
2018-07-13T13:17:02.580Z,2.90
2018-07-13T13:19:32.285Z,2.97
2018-07-13T13:22:02.148Z,2.90
2018-07-13T13:24:31.364Z,2.90
2018-07-13T13:27:00.739Z,2.77
2018-07-13T13:29:30.553Z,2.73
2018-07-13T13:32:00.208Z,2.70
2018-07-13T13:34:29.837Z,2.70
2018-07-13T13:36:59.521Z,2.50
2018-07-13T13:39:29.274Z,2.70
2018-07-13T13:41:59.053Z,2.23
2018-07-13T13:44:28.780Z,2.60
2018-07-13T13:46:58.099Z,2.37
2018-07-13T13:49:28.202Z,2.80
2018-07-13T13:51:57.557Z,2.80
2018-07-13T13:54:27.699Z,3.30
2018-07-13T13:56:57.348Z,13.70
2018-07-13T13:59:27.460Z,18.33
2018-07-13T14:01:56.906Z,28.70
2018-07-13T14:04:26.639Z,2.53
2018-07-13T14:06:56.188Z,2.13
2018-07-13T14:09:25.635Z,2.30
2018-07-13T14:11:54.923Z,2.03
2018-07-13T14:14:25.672Z,2.43
2018-07-13T14:16:55.449Z,2.43
2018-07-13T14:19:25.076Z,2.30
2018-07-13T14:21:54.916Z,2.57
2018-07-13T14:24:25.148Z,2.40
2018-07-13T14:26:55.634Z,2.23
2018-07-13T14:29:25.483Z,2.30
2018-07-13T14:31:55.196Z,2.50
2018-07-13T14:34:25.719Z,2.33
2018-07-13T14:36:55.436Z,2.27
2018-07-13T14:39:25.114Z,2.50
2018-07-13T14:41:54.691Z,2.40
2018-07-13T14:44:25.725Z,2.40
2018-07-13T14:46:55.377Z,2.43
2018-07-13T14:49:25.169Z,2.40
2018-07-13T14:51:54.504Z,2.63
2018-07-13T14:54:23.802Z,2.20
2018-07-13T14:56:54.681Z,2.20
2018-07-13T14:59:24.887Z,2.47
2018-07-13T15:01:54.433Z,2.13
2018-07-13T15:04:24.205Z,2.10
2018-07-13T15:06:54.417Z,2.30
2018-07-13T15:09:25.992Z,2.10
2018-07-13T15:11:57.390Z,2.00
2018-07-13T15:14:26.895Z,2.30
2018-07-13T15:16:56.623Z,2.40
2018-07-13T15:19:26.275Z,2.40
2018-07-13T15:21:55.687Z,2.40
2018-07-13T15:24:24.984Z,2.40
2018-07-13T15:26:54.791Z,2.40
2018-07-13T15:29:24.129Z,2.60
2018-07-13T15:31:53.443Z,2.87
2018-07-13T15:34:23.443Z,2.70
2018-07-13T15:36:53.134Z,2.80
2018-07-13T15:39:23.576Z,2.73
2018-07-13T15:41:52.908Z,2.57
2018-07-13T15:44:23.224Z,2.23
2018-07-13T15:46:52.544Z,2.50
2018-07-13T15:49:22.406Z,2.70
2018-07-13T15:51:52.683Z,2.40
2018-07-13T15:54:22.599Z,3.00
2018-07-13T15:56:52.446Z,2.77
2018-07-13T15:59:22.213Z,2.47
2018-07-13T16:01:51.648Z,3.00
2018-07-13T16:04:21.232Z,2.97
2018-07-13T16:06:51.345Z,3.33
2018-07-13T16:09:21.082Z,3.00
2018-07-13T16:11:51.036Z,3.07
2018-07-13T16:14:20.818Z,3.03
2018-07-13T16:16:50.474Z,2.90
2018-07-13T16:19:20.210Z,2.60
2018-07-13T16:21:50.008Z,2.67
2018-07-13T16:24:19.456Z,2.73
2018-07-13T16:26:49.492Z,2.80
2018-07-13T16:29:18.945Z,3.00
2018-07-13T16:31:49.460Z,2.67
2018-07-13T16:34:19.010Z,2.73
2018-07-13T16:36:48.684Z,2.63
2018-07-13T16:39:18.271Z,3.10
2018-07-13T16:41:48.689Z,3.10
2018-07-13T16:44:18.329Z,3.13
2018-07-13T16:46:48.416Z,2.70
2018-07-13T16:49:18.221Z,2.83
2018-07-13T16:51:47.784Z,2.90
2018-07-13T16:54:17.264Z,2.97
2018-07-13T16:56:47.047Z,3.00
2018-07-13T16:59:17.134Z,3.20
2018-07-13T17:01:46.900Z,2.83
2018-07-13T17:04:16.268Z,2.80
2018-07-13T17:06:46.058Z,3.10
2018-07-13T17:09:15.447Z,3.20
2018-07-13T17:11:45.379Z,3.13
2018-07-13T17:14:14.746Z,3.43
2018-07-13T17:16:44.052Z,3.10
2018-07-13T17:19:13.659Z,3.40
2018-07-13T17:21:42.969Z,4.23
2018-07-13T17:24:15.033Z,4.13
2018-07-13T17:26:44.376Z,4.20
2018-07-13T17:29:13.941Z,3.37
2018-07-13T17:31:43.348Z,3.20
2018-07-13T17:34:12.673Z,3.00
2018-07-13T17:36:42.097Z,3.20
2018-07-13T17:39:11.490Z,3.17
2018-07-13T17:41:41.562Z,3.50
2018-07-13T17:44:11.310Z,3.50
2018-07-13T17:46:40.941Z,3.17
2018-07-13T17:49:10.307Z,4.67
2018-07-13T17:51:39.625Z,3.57
2018-07-13T17:54:10.124Z,3.63
2018-07-13T17:56:40.481Z,3.33
2018-07-13T17:59:11.980Z,3.93
2018-07-13T18:01:41.448Z,3.50
2018-07-13T18:04:10.784Z,3.80
2018-07-13T18:06:40.948Z,3.73
2018-07-13T18:09:11.772Z,3.60
2018-07-13T18:11:41.493Z,3.67
2018-07-13T18:14:11.124Z,3.63
2018-07-13T18:16:40.709Z,4.07
2018-07-13T18:19:10.272Z,3.60
2018-07-13T18:21:39.839Z,3.63
2018-07-13T18:24:09.452Z,3.60
2018-07-13T18:26:39.356Z,3.60
2018-07-13T18:29:08.687Z,4.00
2018-07-13T18:31:38.684Z,4.70
2018-07-13T18:34:08.509Z,3.90
2018-07-13T18:36:37.823Z,4.23
2018-07-13T18:39:07.523Z,3.70
2018-07-13T18:41:36.961Z,3.43
2018-07-13T18:44:07.223Z,4.07
2018-07-13T18:46:36.622Z,3.50
2018-07-13T18:49:06.055Z,4.03
2018-07-13T18:51:36.801Z,4.30
2018-07-13T18:54:06.274Z,4.10
2018-07-13T18:56:35.804Z,3.87
2018-07-13T18:59:06.458Z,5.60
2018-07-13T19:01:35.816Z,4.40
2018-07-13T19:04:05.226Z,4.80
2018-07-13T19:06:35.097Z,5.40
2018-07-13T19:09:05.108Z,4.70
2018-07-13T19:11:34.483Z,4.37
2018-07-13T19:14:04.546Z,4.03
2018-07-13T19:16:34.127Z,4.40
2018-07-13T19:19:03.684Z,3.83
2018-07-13T19:21:34.256Z,3.83
2018-07-13T19:24:04.015Z,3.73
2018-07-13T19:26:33.340Z,3.80
2018-07-13T19:29:02.700Z,4.23
2018-07-13T19:31:33.211Z,3.80
2018-07-13T19:34:02.541Z,4.57
2018-07-13T19:36:32.067Z,4.30
2018-07-13T19:39:01.672Z,4.20
2018-07-13T19:41:32.874Z,4.33
2018-07-13T19:44:02.205Z,4.17
2018-07-13T19:46:31.700Z,4.47
2018-07-13T19:49:00.999Z,4.70
2018-07-13T19:51:30.702Z,4.80
2018-07-13T19:54:00.245Z,4.30
2018-07-13T19:56:29.604Z,5.03
2018-07-13T19:58:58.898Z,3.97
2018-07-13T20:01:28.436Z,4.67
2018-07-13T20:03:57.707Z,4.37
2018-07-13T20:06:27.454Z,4.20
2018-07-13T20:08:56.753Z,4.40
2018-07-13T20:11:26.521Z,4.23
2018-07-13T20:13:55.839Z,4.97
2018-07-13T20:16:25.591Z,5.13
2018-07-13T20:18:54.914Z,4.80
2018-07-13T20:21:24.466Z,5.10
2018-07-13T20:23:55.620Z,5.87
2018-07-13T20:26:25.429Z,4.70
2018-07-13T20:28:54.740Z,4.97
2018-07-13T20:31:24.303Z,5.57
2018-07-13T20:33:55.014Z,4.90
2018-07-13T20:36:24.364Z,4.87
2018-07-13T20:38:53.683Z,5.17
2018-07-13T20:41:23.453Z,5.07
2018-07-13T20:43:52.788Z,5.00
2018-07-13T20:46:22.115Z,5.20
2018-07-13T20:48:51.446Z,4.80
2018-07-13T20:51:20.800Z,5.57
2018-07-13T20:53:50.208Z,4.80
2018-07-13T20:56:20.093Z,4.87
2018-07-13T20:58:49.438Z,5.27
2018-07-13T21:01:19.709Z,4.70
2018-07-13T21:03:49.269Z,5.23
2018-07-13T21:06:19.662Z,5.23
2018-07-13T21:08:49.004Z,5.13
2018-07-13T21:11:18.882Z,5.07
2018-07-13T21:13:48.229Z,5.07
2018-07-13T21:16:17.599Z,5.50
2018-07-13T21:18:46.927Z,5.57
2018-07-13T21:21:16.635Z,5.60
2018-07-13T21:23:45.951Z,5.50
2018-07-13T21:26:15.497Z,4.70
2018-07-13T21:28:45.262Z,5.20
2018-07-13T21:31:14.907Z,5.47
2018-07-13T21:33:44.884Z,5.40
2018-07-13T21:36:15.238Z,4.90
2018-07-13T21:38:44.765Z,5.10
2018-07-13T21:41:15.455Z,5.00
2018-07-13T21:43:45.457Z,5.30
2018-07-13T21:46:16.109Z,4.87
2018-07-13T21:48:46.004Z,5.20
2018-07-13T21:51:15.584Z,5.13
2018-07-13T21:53:45.265Z,5.50
2018-07-13T21:56:15.044Z,5.90
2018-07-13T21:58:44.744Z,5.37
2018-07-13T22:01:15.304Z,5.73
2018-07-13T22:03:44.620Z,5.30
2018-07-13T22:06:13.920Z,5.77
2018-07-13T22:08:43.620Z,5.87
2018-07-13T22:11:12.959Z,6.40
2018-07-13T22:13:42.689Z,6.20
2018-07-13T22:16:13.165Z,6.20
2018-07-13T22:18:42.907Z,5.77
2018-07-13T22:21:12.965Z,6.87
2018-07-13T22:23:42.313Z,6.73
2018-07-13T22:26:11.968Z,6.27
2018-07-13T22:28:41.395Z,5.77
2018-07-13T22:31:11.108Z,6.97
2018-07-13T22:33:40.600Z,6.90
2018-07-13T22:36:10.791Z,7.27
2018-07-13T22:38:40.658Z,7.03
2018-07-13T22:41:09.966Z,7.53
2018-07-13T22:43:39.638Z,6.70
2018-07-13T22:46:10.043Z,6.97
2018-07-13T22:48:40.244Z,6.73
2018-07-13T22:51:10.009Z,6.97
2018-07-13T22:53:39.769Z,7.47
2018-07-13T22:56:09.337Z,7.30
2018-07-13T22:58:40.365Z,7.87
2018-07-13T23:01:09.721Z,8.10
2018-07-13T23:03:39.937Z,8.10
2018-07-13T23:06:09.722Z,7.63
2018-07-13T23:08:39.075Z,7.87
2018-07-13T23:11:08.401Z,7.83
2018-07-13T23:13:37.733Z,8.23
2018-07-13T23:16:07.328Z,7.87
2018-07-13T23:18:36.631Z,7.90
2018-07-13T23:21:06.864Z,7.80
2018-07-13T23:23:37.840Z,7.97
2018-07-13T23:26:07.603Z,7.20
2018-07-13T23:28:36.914Z,8.07
2018-07-13T23:31:06.392Z,8.50
2018-07-13T23:33:35.676Z,8.20
2018-07-13T23:36:05.672Z,8.13
2018-07-13T23:38:34.972Z,8.40
2018-07-13T23:41:04.659Z,8.17
2018-07-13T23:43:33.965Z,8.00
2018-07-13T23:46:03.327Z,8.33
2018-07-13T23:48:32.663Z,8.50
2018-07-13T23:51:02.216Z,7.73
2018-07-13T23:53:32.443Z,8.77
2018-07-13T23:56:01.790Z,9.10
2018-07-13T23:58:31.119Z,8.80
